sensor_id;sensor_type;location;lat;lon;timestamp;pressure;altitude;pressure_sealevel;temperature;humidity
77702;BME280;66868;42.708;23.404;2023-07-20T00:00:47;94893.38;;;23.59;62.17
77702;BME280;66868;42.708;23.404;2023-07-20T00:03:18;94893.09;;;23.76;62.46
77702;BME280;66868;42.708;23.404;2023-07-20T00:05:50;94892.19;;;23.84;62.63
77702;BME280;66868;42.708;23.404;2023-07-20T00:08:17;94896.22;;;24.01;62.55
77702;BME280;66868;42.708;23.404;2023-07-20T00:10:43;94891.44;;;24.13;63.90
77702;BME280;66868;42.708;23.404;2023-07-20T00:13:09;94860.91;;;24.08;65.03
77702;BME280;66868;42.708;23.404;2023-07-20T00:15:35;94875.84;;;24.21;65.44
77702;BME280;66868;42.708;23.404;2023-07-20T00:18:00;94895.19;;;24.25;65.83
77702;BME280;66868;42.708;23.404;2023-07-20T00:20:26;94901.53;;;24.23;66.14
77702;BME280;66868;42.708;23.404;2023-07-20T00:22:51;94890.13;;;24.17;66.13
77702;BME280;66868;42.708;23.404;2023-07-20T00:25:17;94858.22;;;24.02;66.54
77702;BME280;66868;42.708;23.404;2023-07-20T00:27:43;94890.03;;;24.25;66.66
77702;BME280;66868;42.708;23.404;2023-07-20T00:30:09;94881.88;;;24.13;67.05
77702;BME280;66868;42.708;23.404;2023-07-20T00:32:34;94900.75;;;24.22;66.74
77702;BME280;66868;42.708;23.404;2023-07-20T00:35:00;94889.91;;;24.18;66.92
77702;BME280;66868;42.708;23.404;2023-07-20T00:37:25;94855.28;;;23.90;67.01
77702;BME280;66868;42.708;23.404;2023-07-20T00:39:51;94877.78;;;24.04;66.92
77702;BME280;66868;42.708;23.404;2023-07-20T00:42:16;94875.44;;;24.09;67.43
77702;BME280;66868;42.708;23.404;2023-07-20T00:44:41;94869.75;;;23.99;66.87
77702;BME280;66868;42.708;23.404;2023-07-20T00:47:07;94858.31;;;23.94;67.13
77702;BME280;66868;42.708;23.404;2023-07-20T00:49:32;94851.69;;;23.91;67.79
77702;BME280;66868;42.708;23.404;2023-07-20T00:52:00;94867.50;;;23.96;67.27
77702;BME280;66868;42.708;23.404;2023-07-20T00:54:26;94843.97;;;23.76;67.14
77702;BME280;66868;42.708;23.404;2023-07-20T00:56:53;94865.00;;;23.88;67.42
77702;BME280;66868;42.708;23.404;2023-07-20T00:59:18;94863.47;;;23.79;67.76
77702;BME280;66868;42.708;23.404;2023-07-20T01:01:44;94850.19;;;23.67;68.04
77702;BME280;66868;42.708;23.404;2023-07-20T01:04:10;94861.63;;;23.27;69.38
77702;BME280;66868;42.708;23.404;2023-07-20T01:09:12;94868.09;;;22.78;72.27
77702;BME280;66868;42.708;23.404;2023-07-20T01:14:11;94862.19;;;22.22;75.16
77702;BME280;66868;42.708;23.404;2023-07-20T01:16:37;94862.91;;;22.00;76.14
77702;BME280;66868;42.708;23.404;2023-07-20T01:19:02;94876.91;;;21.97;77.08
77702;BME280;66868;42.708;23.404;2023-07-20T01:24:51;94860.34;;;22.00;76.70
77702;BME280;66868;42.708;23.404;2023-07-20T01:33:00;94864.69;;;21.91;76.67
77702;BME280;66868;42.708;23.404;2023-07-20T01:35:28;94847.78;;;21.81;77.27
77702;BME280;66868;42.708;23.404;2023-07-20T01:37:55;94866.44;;;21.99;77.60
77702;BME280;66868;42.708;23.404;2023-07-20T01:40:23;94853.25;;;21.94;77.14
77702;BME280;66868;42.708;23.404;2023-07-20T01:42:50;94870.94;;;22.13;76.62
77702;BME280;66868;42.708;23.404;2023-07-20T01:45:17;94833.91;;;21.98;76.04
77702;BME280;66868;42.708;23.404;2023-07-20T01:47:42;94861.03;;;22.25;75.41
77702;BME280;66868;42.708;23.404;2023-07-20T01:50:08;94861.84;;;22.33;74.86
77702;BME280;66868;42.708;23.404;2023-07-20T01:52:34;94859.88;;;22.35;74.87
77702;BME280;66868;42.708;23.404;2023-07-20T01:54:59;94853.75;;;22.36;74.39
77702;BME280;66868;42.708;23.404;2023-07-20T01:57:25;94872.41;;;22.46;74.14
77702;BME280;66868;42.708;23.404;2023-07-20T01:59:50;94866.25;;;22.47;74.24
77702;BME280;66868;42.708;23.404;2023-07-20T02:02:15;94825.41;;;22.28;74.10
77702;BME280;66868;42.708;23.404;2023-07-20T02:04:41;94858.38;;;22.49;74.37
77702;BME280;66868;42.708;23.404;2023-07-20T02:07:06;94859.16;;;22.50;74.28
77702;BME280;66868;42.708;23.404;2023-07-20T02:09:31;94860.78;;;22.51;74.22
77702;BME280;66868;42.708;23.404;2023-07-20T02:11:57;94848.19;;;22.47;73.76
77702;BME280;66868;42.708;23.404;2023-07-20T02:14:22;94852.03;;;22.60;73.69
77702;BME280;66868;42.708;23.404;2023-07-20T02:16:48;94840.75;;;22.53;73.41
77702;BME280;66868;42.708;23.404;2023-07-20T02:19:18;94855.13;;;22.55;73.53
77702;BME280;66868;42.708;23.404;2023-07-20T02:21:43;94850.00;;;22.47;73.62
77702;BME280;66868;42.708;23.404;2023-07-20T02:24:09;94866.25;;;22.47;73.71
77702;BME280;66868;42.708;23.404;2023-07-20T02:26:34;94842.78;;;22.34;73.52
77702;BME280;66868;42.708;23.404;2023-07-20T02:29:00;94859.72;;;22.37;73.96
77702;BME280;66868;42.708;23.404;2023-07-20T02:31:25;94847.78;;;22.36;74.16
77702;BME280;66868;42.708;23.404;2023-07-20T02:33:50;94859.38;;;22.40;73.86
77702;BME280;66868;42.708;23.404;2023-07-20T02:36:16;94845.22;;;22.36;74.03
77702;BME280;66868;42.708;23.404;2023-07-20T02:38:42;94806.63;;;22.12;74.13
77702;BME280;66868;42.708;23.404;2023-07-20T02:41:08;94843.44;;;22.36;73.95
77702;BME280;66868;42.708;23.404;2023-07-20T02:43:33;94841.97;;;22.42;73.95
77702;BME280;66868;42.708;23.404;2023-07-20T02:45:58;94837.25;;;22.45;73.64
77702;BME280;66868;42.708;23.404;2023-07-20T02:48:24;94820.06;;;22.38;73.67
77702;BME280;66868;42.708;23.404;2023-07-20T02:50:49;94827.09;;;22.44;73.57
77702;BME280;66868;42.708;23.404;2023-07-20T02:53:14;94822.41;;;22.47;73.55
77702;BME280;66868;42.708;23.404;2023-07-20T02:55:40;94831.13;;;22.46;73.58
77702;BME280;66868;42.708;23.404;2023-07-20T02:58:05;94833.88;;;22.45;73.61
77702;BME280;66868;42.708;23.404;2023-07-20T03:00:30;94829.53;;;22.45;73.60
77702;BME280;66868;42.708;23.404;2023-07-20T03:02:56;94840.34;;;22.41;73.62
77702;BME280;66868;42.708;23.404;2023-07-20T03:05:22;94831.44;;;22.13;75.15
77702;BME280;66868;42.708;23.404;2023-07-20T03:07:50;94838.44;;;21.72;76.14
77702;BME280;66868;42.708;23.404;2023-07-20T03:10:16;94840.41;;;21.37;77.13
77702;BME280;66868;42.708;23.404;2023-07-20T03:12:41;94830.41;;;21.02;78.27
77702;BME280;66868;42.708;23.404;2023-07-20T03:15:07;94837.16;;;20.87;79.62
77702;BME280;66868;42.708;23.404;2023-07-20T03:17:33;94836.19;;;20.96;79.26
77702;BME280;66868;42.708;23.404;2023-07-20T03:19:58;94837.47;;;20.92;79.76
77702;BME280;66868;42.708;23.404;2023-07-20T03:22:25;94856.31;;;20.92;80.04
77702;BME280;66868;42.708;23.404;2023-07-20T03:24:50;94851.63;;;20.88;79.90
77702;BME280;66868;42.708;23.404;2023-07-20T03:27:17;94854.69;;;20.91;80.08
77702;BME280;66868;42.708;23.404;2023-07-20T03:29:43;94851.34;;;20.99;80.17
77702;BME280;66868;42.708;23.404;2023-07-20T03:32:09;94848.44;;;21.02;79.72
77702;BME280;66868;42.708;23.404;2023-07-20T03:34:35;94852.97;;;21.08;79.60
77702;BME280;66868;42.708;23.404;2023-07-20T03:37:00;94814.97;;;20.94;79.58
77702;BME280;66868;42.708;23.404;2023-07-20T03:39:26;94851.03;;;21.18;79.34
77702;BME280;66868;42.708;23.404;2023-07-20T03:41:51;94844.78;;;21.21;78.87
77702;BME280;66868;42.708;23.404;2023-07-20T03:44:17;94841.88;;;21.15;79.27
77702;BME280;66868;42.708;23.404;2023-07-20T03:46:43;94820.28;;;20.84;79.92
77702;BME280;66868;42.708;23.404;2023-07-20T03:49:08;94851.66;;;21.04;79.99
77702;BME280;66868;42.708;23.404;2023-07-20T03:51:34;94852.94;;;21.00;80.48
77702;BME280;66868;42.708;23.404;2023-07-20T03:54:00;94847.94;;;20.90;81.02
77702;BME280;66868;42.708;23.404;2023-07-20T03:56:25;94855.84;;;21.05;80.08
77702;BME280;66868;42.708;23.404;2023-07-20T03:58:51;94847.50;;;21.19;80.23
77702;BME280;66868;42.708;23.404;2023-07-20T04:01:17;94849.78;;;21.30;79.94
77702;BME280;66868;42.708;23.404;2023-07-20T04:03:42;94864.59;;;21.36;79.21
77702;BME280;66868;42.708;23.404;2023-07-20T04:06:08;94865.84;;;21.24;80.00
77702;BME280;66868;42.708;23.404;2023-07-20T04:08:35;94867.47;;;21.33;79.26
77702;BME280;66868;42.708;23.404;2023-07-20T04:11:02;94866.50;;;21.34;78.65
77702;BME280;66868;42.708;23.404;2023-07-20T04:13:27;94870.38;;;21.30;78.95
77702;BME280;66868;42.708;23.404;2023-07-20T04:15:53;94859.75;;;21.17;79.27
77702;BME280;66868;42.708;23.404;2023-07-20T04:18:18;94862.66;;;21.22;78.92
77702;BME280;66868;42.708;23.404;2023-07-20T04:20:44;94854.94;;;21.22;78.31
77702;BME280;66868;42.708;23.404;2023-07-20T04:23:09;94848.50;;;21.26;78.27
77702;BME280;66868;42.708;23.404;2023-07-20T04:25:34;94845.91;;;21.34;78.12
77702;BME280;66868;42.708;23.404;2023-07-20T04:28:07;94842.06;;;21.22;79.08
77702;BME280;66868;42.708;23.404;2023-07-20T04:30:36;94847.97;;;21.23;79.27
77702;BME280;66868;42.708;23.404;2023-07-20T04:33:03;94839.59;;;21.12;79.89
77702;BME280;66868;42.708;23.404;2023-07-20T04:35:53;94850.56;;;21.14;79.81
77702;BME280;66868;42.708;23.404;2023-07-20T04:38:19;94836.22;;;21.04;81.06
77702;BME280;66868;42.708;23.404;2023-07-20T04:40:45;94827.09;;;21.18;80.37
77702;BME280;66868;42.708;23.404;2023-07-20T04:43:11;94826.91;;;21.35;79.92
77702;BME280;66868;42.708;23.404;2023-07-20T04:45:36;94811.13;;;21.38;79.29
77702;BME280;66868;42.708;23.404;2023-07-20T04:48:02;94825.28;;;21.58;79.05
77702;BME280;66868;42.708;23.404;2023-07-20T04:50:27;94817.22;;;21.62;78.57
77702;BME280;66868;42.708;23.404;2023-07-20T04:52:53;94825.56;;;21.72;77.54
77702;BME280;66868;42.708;23.404;2023-07-20T04:55:18;94831.31;;;21.90;76.76
77702;BME280;66868;42.708;23.404;2023-07-20T04:57:44;94827.13;;;21.97;76.22
77702;BME280;66868;42.708;23.404;2023-07-20T05:00:10;94821.16;;;21.96;76.34
77702;BME280;66868;42.708;23.404;2023-07-20T05:02:39;94828.69;;;22.14;74.89
77702;BME280;66868;42.708;23.404;2023-07-20T05:05:05;94832.22;;;22.21;74.09
77702;BME280;66868;42.708;23.404;2023-07-20T05:07:40;94836.88;;;22.26;73.65
77702;BME280;66868;42.708;23.404;2023-07-20T05:10:06;94830.09;;;22.25;72.65
77702;BME280;66868;42.708;23.404;2023-07-20T05:12:32;94837.81;;;22.33;72.70
77702;BME280;66868;42.708;23.404;2023-07-20T05:14:57;94847.63;;;22.37;72.87
77702;BME280;66868;42.708;23.404;2023-07-20T05:17:23;94857.91;;;22.45;72.99
77702;BME280;66868;42.708;23.404;2023-07-20T05:19:50;94794.72;;;22.02;73.30
77702;BME280;66868;42.708;23.404;2023-07-20T05:22:15;94844.97;;;22.54;73.01
77702;BME280;66868;42.708;23.404;2023-07-20T05:24:43;94833.66;;;22.55;72.88
77702;BME280;66868;42.708;23.404;2023-07-20T05:27:09;94833.91;;;22.68;72.74
77702;BME280;66868;42.708;23.404;2023-07-20T05:29:34;94843.91;;;22.79;72.66
77702;BME280;66868;42.708;23.404;2023-07-20T05:32:00;94832.00;;;22.62;73.08
77702;BME280;66868;42.708;23.404;2023-07-20T05:34:25;94832.00;;;22.70;73.11
77702;BME280;66868;42.708;23.404;2023-07-20T05:37:08;94852.59;;;22.78;73.08
77702;BME280;66868;42.708;23.404;2023-07-20T05:39:34;94838.47;;;22.66;72.53
77702;BME280;66868;42.708;23.404;2023-07-20T05:41:59;94850.63;;;22.80;71.72
77702;BME280;66868;42.708;23.404;2023-07-20T05:44:25;94838.75;;;22.71;73.90
77702;BME280;66868;42.708;23.404;2023-07-20T05:46:50;94859.25;;;22.64;74.31
77702;BME280;66868;42.708;23.404;2023-07-20T05:49:16;94872.50;;;22.61;75.63
77702;BME280;66868;42.708;23.404;2023-07-20T05:51:41;94874.09;;;22.62;74.26
77702;BME280;66868;42.708;23.404;2023-07-20T05:54:06;94857.50;;;22.57;74.63
77702;BME280;66868;42.708;23.404;2023-07-20T05:56:32;94860.75;;;22.59;75.08
77702;BME280;66868;42.708;23.404;2023-07-20T05:58:57;94867.53;;;22.60;77.27
77702;BME280;66868;42.708;23.404;2023-07-20T06:01:23;94839.78;;;22.54;76.37
77702;BME280;66868;42.708;23.404;2023-07-20T06:03:48;94855.78;;;22.88;75.44
77702;BME280;66868;42.708;23.404;2023-07-20T06:06:13;94850.13;;;22.84;75.88
77702;BME280;66868;42.708;23.404;2023-07-20T06:08:40;94853.50;;;22.85;75.56
77702;BME280;66868;42.708;23.404;2023-07-20T06:11:05;94831.31;;;22.76;74.85
77702;BME280;66868;42.708;23.404;2023-07-20T06:13:31;94862.81;;;22.94;73.69
77702;BME280;66868;42.708;23.404;2023-07-20T06:15:56;94855.25;;;22.93;74.63
77702;BME280;66868;42.708;23.404;2023-07-20T06:18:24;94845.63;;;23.09;72.87
77702;BME280;66868;42.708;23.404;2023-07-20T06:20:51;94854.09;;;23.18;73.48
77702;BME280;66868;42.708;23.404;2023-07-20T06:23:18;94844.78;;;23.31;71.41
77702;BME280;66868;42.708;23.404;2023-07-20T06:25:43;94827.75;;;23.22;72.00
77702;BME280;66868;42.708;23.404;2023-07-20T06:28:09;94839.97;;;23.28;70.05
77702;BME280;66868;42.708;23.404;2023-07-20T06:30:34;94834.13;;;23.34;71.48
77702;BME280;66868;42.708;23.404;2023-07-20T06:33:00;94826.19;;;23.36;72.77
77702;BME280;66868;42.708;23.404;2023-07-20T06:35:25;94821.72;;;23.53;72.42
77702;BME280;66868;42.708;23.404;2023-07-20T06:37:51;94825.09;;;23.68;71.96
77702;BME280;66868;42.708;23.404;2023-07-20T06:40:17;94821.56;;;23.69;71.20
77702;BME280;66868;42.708;23.404;2023-07-20T06:42:43;94819.69;;;23.77;70.91
77702;BME280;66868;42.708;23.404;2023-07-20T06:45:08;94837.97;;;23.91;71.42
77702;BME280;66868;42.708;23.404;2023-07-20T06:47:34;94838.88;;;23.98;71.07
77702;BME280;66868;42.708;23.404;2023-07-20T06:49:59;94810.06;;;23.86;70.90
77702;BME280;66868;42.708;23.404;2023-07-20T06:52:25;94837.56;;;24.16;70.72
77702;BME280;66868;42.708;23.404;2023-07-20T06:54:50;94799.72;;;24.01;70.62
77702;BME280;66868;42.708;23.404;2023-07-20T06:57:16;94839.31;;;24.45;70.01
77702;BME280;66868;42.708;23.404;2023-07-20T06:59:42;94827.00;;;24.47;68.52
77702;BME280;66868;42.708;23.404;2023-07-20T07:02:07;94840.94;;;24.82;67.50
77702;BME280;66868;42.708;23.404;2023-07-20T07:04:33;94860.00;;;25.11;66.55
77702;BME280;66868;42.708;23.404;2023-07-20T07:06:59;94875.28;;;25.27;65.84
77702;BME280;66868;42.708;23.404;2023-07-20T07:09:25;94866.00;;;25.39;65.03
77702;BME280;66868;42.708;23.404;2023-07-20T07:11:50;94861.22;;;25.57;64.07
77702;BME280;66868;42.708;23.404;2023-07-20T07:14:15;94862.38;;;25.55;63.47
77702;BME280;66868;42.708;23.404;2023-07-20T07:16:41;94872.03;;;25.61;63.15
77702;BME280;66868;42.708;23.404;2023-07-20T07:19:07;94846.63;;;25.35;62.77
77702;BME280;66868;42.708;23.404;2023-07-20T07:21:32;94894.53;;;25.39;61.85
77702;BME280;66868;42.708;23.404;2023-07-20T07:23:57;94902.81;;;25.28;62.46
77702;BME280;66868;42.708;23.404;2023-07-20T07:26:25;94871.00;;;24.98;63.35
77702;BME280;66868;42.708;23.404;2023-07-20T07:28:50;94892.34;;;25.00;63.46
77702;BME280;66868;42.708;23.404;2023-07-20T07:31:16;94873.97;;;24.80;62.60
77702;BME280;66868;42.708;23.404;2023-07-20T07:33:41;94909.00;;;25.12;62.01
77702;BME280;66868;42.708;23.404;2023-07-20T07:36:06;94901.06;;;25.14;63.28
77702;BME280;66868;42.708;23.404;2023-07-20T07:38:32;94895.50;;;25.17;61.42
77702;BME280;66868;42.708;23.404;2023-07-20T07:40:58;94879.47;;;25.28;61.00
77702;BME280;66868;42.708;23.404;2023-07-20T07:43:24;94881.34;;;25.34;60.41
77702;BME280;66868;42.708;23.404;2023-07-20T07:45:49;94884.84;;;25.47;59.76
77702;BME280;66868;42.708;23.404;2023-07-20T07:48:15;94889.97;;;25.62;60.01
77702;BME280;66868;42.708;23.404;2023-07-20T07:50:40;94889.22;;;25.68;57.07
77702;BME280;66868;42.708;23.404;2023-07-20T07:53:07;94875.31;;;25.76;56.38
77702;BME280;66868;42.708;23.404;2023-07-20T07:55:32;94838.44;;;25.80;56.20
77702;BME280;66868;42.708;23.404;2023-07-20T07:57:58;94841.06;;;25.87;55.57
77702;BME280;66868;42.708;23.404;2023-07-20T08:00:23;94856.25;;;25.90;55.64
77702;BME280;66868;42.708;23.404;2023-07-20T08:02:50;94855.31;;;25.98;55.65
77702;BME280;66868;42.708;23.404;2023-07-20T08:05:15;94832.34;;;25.94;56.29
77702;BME280;66868;42.708;23.404;2023-07-20T08:07:42;94846.19;;;26.08;56.75
77702;BME280;66868;42.708;23.404;2023-07-20T08:10:07;94874.38;;;26.18;57.36
77702;BME280;66868;42.708;23.404;2023-07-20T08:12:33;94887.25;;;26.26;58.04
77702;BME280;66868;42.708;23.404;2023-07-20T08:14:59;94891.91;;;26.37;58.72
77702;BME280;66868;42.708;23.404;2023-07-20T08:17:24;94886.13;;;26.42;58.11
77702;BME280;66868;42.708;23.404;2023-07-20T08:19:50;94907.59;;;26.57;58.75
77702;BME280;66868;42.708;23.404;2023-07-20T08:22:15;94892.59;;;26.52;58.63
77702;BME280;66868;42.708;23.404;2023-07-20T08:24:42;94885.03;;;26.57;59.41
77702;BME280;66868;42.708;23.404;2023-07-20T08:27:08;94889.44;;;26.63;59.05
77702;BME280;66868;42.708;23.404;2023-07-20T08:29:35;94884.63;;;26.60;59.30
77702;BME280;66868;42.708;23.404;2023-07-20T08:32:01;94905.03;;;26.63;57.54
77702;BME280;66868;42.708;23.404;2023-07-20T08:34:26;94906.53;;;26.45;58.64
77702;BME280;66868;42.708;23.404;2023-07-20T08:36:52;94894.72;;;26.42;58.12
77702;BME280;66868;42.708;23.404;2023-07-20T08:39:17;94894.34;;;26.45;55.92
77702;BME280;66868;42.708;23.404;2023-07-20T08:41:43;94906.53;;;26.45;55.25
77702;BME280;66868;42.708;23.404;2023-07-20T08:44:12;94908.56;;;26.49;53.80
77702;BME280;66868;42.708;23.404;2023-07-20T08:46:38;94893.38;;;26.53;53.79
77702;BME280;66868;42.708;23.404;2023-07-20T08:49:04;94881.81;;;26.55;54.26
77702;BME280;66868;42.708;23.404;2023-07-20T08:51:30;94895.00;;;26.60;52.05
77702;BME280;66868;42.708;23.404;2023-07-20T08:53:58;94904.88;;;26.78;51.65
77702;BME280;66868;42.708;23.404;2023-07-20T08:56:25;94862.31;;;26.72;52.77
77702;BME280;66868;42.708;23.404;2023-07-20T08:58:53;94889.56;;;26.90;52.32
77702;BME280;66868;42.708;23.404;2023-07-20T09:01:19;94877.97;;;26.86;51.99
77702;BME280;66868;42.708;23.404;2023-07-20T09:03:46;94869.97;;;26.94;51.93
77702;BME280;66868;42.708;23.404;2023-07-20T09:06:12;94866.41;;;27.08;53.03
77702;BME280;66868;42.708;23.404;2023-07-20T09:08:46;94869.44;;;27.18;52.26
77702;BME280;66868;42.708;23.404;2023-07-20T09:11:12;94872.47;;;27.41;51.20
77702;BME280;66868;42.708;23.404;2023-07-20T09:13:38;94868.66;;;27.44;51.41
77702;BME280;66868;42.708;23.404;2023-07-20T09:16:04;94880.91;;;27.50;51.92
77702;BME280;66868;42.708;23.404;2023-07-20T09:18:31;94877.72;;;27.54;50.52
77702;BME280;66868;42.708;23.404;2023-07-20T09:21:04;94861.25;;;27.47;49.67
77702;BME280;66868;42.708;23.404;2023-07-20T09:23:48;94863.09;;;27.53;50.90
77702;BME280;66868;42.708;23.404;2023-07-20T09:26:18;94845.28;;;27.63;50.71
77702;BME280;66868;42.708;23.404;2023-07-20T09:28:49;94849.69;;;27.83;50.33
77702;BME280;66868;42.708;23.404;2023-07-20T09:31:21;94858.66;;;28.00;47.55
77702;BME280;66868;42.708;23.404;2023-07-20T09:33:48;94844.88;;;27.93;47.34
77702;BME280;66868;42.708;23.404;2023-07-20T09:36:14;94849.84;;;28.01;47.15
77702;BME280;66868;42.708;23.404;2023-07-20T09:38:41;94844.47;;;28.16;46.39
77702;BME280;66868;42.708;23.404;2023-07-20T09:41:07;94855.84;;;28.21;46.34
77702;BME280;66868;42.708;23.404;2023-07-20T09:43:34;94870.84;;;28.32;45.30
77702;BME280;66868;42.708;23.404;2023-07-20T09:45:59;94861.41;;;28.31;44.98
77702;BME280;66868;42.708;23.404;2023-07-20T09:48:29;94838.56;;;28.40;45.06
77702;BME280;66868;42.708;23.404;2023-07-20T09:50:57;94842.28;;;28.64;43.88
77702;BME280;66868;42.708;23.404;2023-07-20T09:53:25;94849.84;;;28.78;43.13
77702;BME280;66868;42.708;23.404;2023-07-20T09:55:52;94854.53;;;29.01;42.93
77702;BME280;66868;42.708;23.404;2023-07-20T09:58:18;94821.53;;;29.20;42.86
77702;BME280;66868;42.708;23.404;2023-07-20T10:00:51;94811.06;;;29.26;41.53
77702;BME280;66868;42.708;23.404;2023-07-20T10:03:21;94803.47;;;29.50;42.31
77702;BME280;66868;42.708;23.404;2023-07-20T10:05:52;94811.31;;;29.50;41.40
77702;BME280;66868;42.708;23.404;2023-07-20T10:08:24;94824.53;;;29.55;41.82
77702;BME280;66868;42.708;23.404;2023-07-20T10:10:53;94807.09;;;29.49;42.69
77702;BME280;66868;42.708;23.404;2023-07-20T10:13:22;94830.78;;;29.72;41.29
77702;BME280;66868;42.708;23.404;2023-07-20T10:15:54;94831.75;;;29.53;43.20
77702;BME280;66868;42.708;23.404;2023-07-20T10:18:30;94825.97;;;29.69;42.60
77702;BME280;66868;42.708;23.404;2023-07-20T10:20:57;94825.50;;;29.78;41.15
77702;BME280;66868;42.708;23.404;2023-07-20T10:23:26;94818.44;;;29.61;41.75
77702;BME280;66868;42.708;23.404;2023-07-20T10:25:53;94836.09;;;29.83;41.45
77702;BME280;66868;42.708;23.404;2023-07-20T10:28:19;94836.53;;;29.80;41.60
77702;BME280;66868;42.708;23.404;2023-07-20T10:30:45;94847.13;;;29.85;42.51
77702;BME280;66868;42.708;23.404;2023-07-20T10:33:11;94840.75;;;29.81;41.18
77702;BME280;66868;42.708;23.404;2023-07-20T10:35:57;94833.88;;;29.87;40.72
77702;BME280;66868;42.708;23.404;2023-07-20T10:41:20;94807.88;;;29.74;42.03
77702;BME280;66868;42.708;23.404;2023-07-20T10:43:47;94832.31;;;29.79;41.54
77702;BME280;66868;42.708;23.404;2023-07-20T10:46:13;94831.09;;;29.82;41.36
77702;BME280;66868;42.708;23.404;2023-07-20T10:49:04;94827.56;;;29.70;44.23
77702;BME280;66868;42.708;23.404;2023-07-20T10:51:30;94804.19;;;29.81;39.40
77702;BME280;66868;42.708;23.404;2023-07-20T10:54:03;94779.69;;;29.82;43.11
77702;BME280;66868;42.708;23.404;2023-07-20T10:56:28;94768.53;;;29.94;40.86
77702;BME280;66868;42.708;23.404;2023-07-20T10:59:01;94778.34;;;30.16;41.96
77702;BME280;66868;42.708;23.404;2023-07-20T11:01:44;94801.97;;;30.40;40.26
77702;BME280;66868;42.708;23.404;2023-07-20T11:04:10;94804.72;;;30.45;38.59
77702;BME280;66868;42.708;23.404;2023-07-20T11:06:36;94789.44;;;30.48;37.42
77702;BME280;66868;42.708;23.404;2023-07-20T11:09:11;94771.94;;;30.49;38.53
77702;BME280;66868;42.708;23.404;2023-07-20T11:11:47;94762.69;;;30.64;39.77
77702;BME280;66868;42.708;23.404;2023-07-20T11:14:22;94773.75;;;30.78;38.72
77702;BME280;66868;42.708;23.404;2023-07-20T11:17:31;94767.88;;;30.94;39.52
77702;BME280;66868;42.708;23.404;2023-07-20T11:19:58;94760.38;;;30.86;40.05
77702;BME280;66868;42.708;23.404;2023-07-20T11:22:26;94759.22;;;30.82;40.22
77702;BME280;66868;42.708;23.404;2023-07-20T11:24:55;94762.84;;;31.11;39.46
77702;BME280;66868;42.708;23.404;2023-07-20T11:27:21;94763.78;;;31.28;39.76
77702;BME280;66868;42.708;23.404;2023-07-20T11:29:48;94759.50;;;31.57;39.31
77702;BME280;66868;42.708;23.404;2023-07-20T11:32:22;94766.44;;;31.63;38.84
77702;BME280;66868;42.708;23.404;2023-07-20T11:34:48;94760.72;;;31.43;39.68
77702;BME280;66868;42.708;23.404;2023-07-20T11:37:15;94751.84;;;31.44;38.59
77702;BME280;66868;42.708;23.404;2023-07-20T11:39:41;94744.53;;;31.23;38.94
77702;BME280;66868;42.708;23.404;2023-07-20T11:42:06;94736.47;;;31.24;39.90
77702;BME280;66868;42.708;23.404;2023-07-20T11:44:32;94737.50;;;31.35;40.07
77702;BME280;66868;42.708;23.404;2023-07-20T11:49:28;94746.94;;;31.36;39.68
77702;BME280;66868;42.708;23.404;2023-07-20T11:51:55;94742.63;;;31.30;40.04
77702;BME280;66868;42.708;23.404;2023-07-20T11:54:20;94735.00;;;31.40;39.79
77702;BME280;66868;42.708;23.404;2023-07-20T11:56:46;94741.28;;;31.62;39.54
77702;BME280;66868;42.708;23.404;2023-07-20T11:59:11;94736.72;;;31.81;38.80
77702;BME280;66868;42.708;23.404;2023-07-20T12:01:36;94640.78;;;31.40;38.99
77702;BME280;66868;42.708;23.404;2023-07-20T12:04:05;94731.75;;;32.08;37.86
77702;BME280;66868;42.708;23.404;2023-07-20T12:06:32;94727.56;;;32.18;37.33
77702;BME280;66868;42.708;23.404;2023-07-20T12:08:58;94718.81;;;32.13;37.58
77702;BME280;66868;42.708;23.404;2023-07-20T12:11:37;94729.81;;;32.26;36.49
77702;BME280;66868;42.708;23.404;2023-07-20T12:14:07;94715.53;;;32.34;34.98
77702;BME280;66868;42.708;23.404;2023-07-20T12:16:34;94710.94;;;32.41;35.66
77702;BME280;66868;42.708;23.404;2023-07-20T12:19:01;94715.59;;;32.51;35.70
77702;BME280;66868;42.708;23.404;2023-07-20T12:21:27;94702.31;;;32.69;35.10
77702;BME280;66868;42.708;23.404;2023-07-20T12:23:56;94711.84;;;32.92;35.18
77702;BME280;66868;42.708;23.404;2023-07-20T12:26:21;94720.84;;;32.96;34.38
77702;BME280;66868;42.708;23.404;2023-07-20T12:28:49;94711.38;;;33.11;34.48
77702;BME280;66868;42.708;23.404;2023-07-20T12:31:14;94687.22;;;33.26;34.43
77702;BME280;66868;42.708;23.404;2023-07-20T12:33:40;94723.44;;;33.62;35.62
77702;BME280;66868;42.708;23.404;2023-07-20T12:36:05;94709.75;;;33.77;34.12
77702;BME280;66868;42.708;23.404;2023-07-20T12:38:31;94707.44;;;34.02;33.48
77702;BME280;66868;42.708;23.404;2023-07-20T12:40:57;94697.34;;;34.16;34.18
77702;BME280;66868;42.708;23.404;2023-07-20T12:43:23;94714.78;;;34.44;32.11
77702;BME280;66868;42.708;23.404;2023-07-20T12:45:49;94715.66;;;34.54;32.07
77702;BME280;66868;42.708;23.404;2023-07-20T12:48:14;94703.78;;;34.25;30.91
77702;BME280;66868;42.708;23.404;2023-07-20T12:50:39;94711.97;;;34.55;31.06
77702;BME280;66868;42.708;23.404;2023-07-20T12:53:05;94701.28;;;34.89;31.18
77702;BME280;66868;42.708;23.404;2023-07-20T12:55:30;94686.94;;;35.07;30.17
77702;BME280;66868;42.708;23.404;2023-07-20T12:57:56;94714.06;;;35.39;28.99
77702;BME280;66868;42.708;23.404;2023-07-20T13:00:21;94716.25;;;35.52;28.38
77702;BME280;66868;42.708;23.404;2023-07-20T13:02:48;94690.41;;;35.49;28.90
77702;BME280;66868;42.708;23.404;2023-07-20T13:05:14;94696.22;;;35.93;27.98
77702;BME280;66868;42.708;23.404;2023-07-20T13:07:40;94714.59;;;36.45;27.81